首页
METAR-TAF:

METAR-TAF

机场 :

阿伯茲福德國際機場

亞博斯福, 不列颠哥伦比亚, 加拿大

纬度: 49-02N, 经度: 122-22W, 海拔: 54米

当前天气观测

该预报发布于1小时和14分钟前的01:00 UTC
风速12节,风向西南
温度 17°C
湿度 52%
气压 1022 hPa
能見度: 40.2公里
少量云层高于4000英尺, 塔状积云.
少量云层高于4500英尺
多云层高于25000英尺

METAR: CYXX 210100Z 23012KT 25SM FEW040TCU FEW045 BKN250 17/07 A3017 RMK TCU1CU1CS5 TCU TR SLP221

时间: 19:14 (02:14 UTC)

预报

该预报发布于2小时和34分钟前的23:40 UTC
预报有效从21日的 00点(UTC)到 21日的 24点(UTC)
风速8节,风向西转西南
能見度: 10公里
散云层高于5000英尺
散云层高于19000英尺
从 21日的 0500点(UTC)
风速8节,风向南转西南
能見度: 10公里
多云层高于5000英尺
从 21日的 1000点(UTC)
风速10节,风向南转西南
能見度: 10公里
阴天层高于3000英尺
短暂存在
从 21日的 10点(UTC)到 21日的 16点(UTC)
能見度: 8.0公里
阴天层高于1500英尺
小雨, 轻雾
从 21日的 1600点(UTC)
风速10节,风向南转西南
能見度: 10公里
阴天层高于1500英尺
小雨
短暂存在
从 21日的 16点(UTC)到 21日的 24点(UTC)
能見度: 3.2公里
阴天层高于800英尺
小雨, 轻雾

TAF: CYXX 202340Z 2100/2124 24008KT P6SM SCT050 SCT190 FM210500 20008KT P6SM BKN050 FM211000 20010KT P6SM OVC030 TEMPO 2110/2116 5SM -RA BR OVC015 FM211600 20010KT P6SM -RA OVC015 TEMPO 2116/2124 2SM -RA BR OVC008 RMK NXT FCST BY 210600Z

超过4000个机场的气象观测和天气预报(METAR&TAF报告)。

可查询的气象台以黄色和红色小点在地图上表示。

将鼠标移到小点上方,可查看气象台名称。

然后点击查看天气观测和预报。

如需切换地图:点击带黑十字的绿色按钮放大地图;点击带横线的绿色按钮缩小地图;或者点击绿色箭头查看邻近地区的地图。


METAR-TAF: